sensor_id;sensor_type;location;lat;lon;timestamp;P1;durP1;ratioP1;P2;durP2;ratioP2
66628;SDS011;53532;53.084;6.352;2022-10-16T00:00:05;11.23;;;3.22;;
66628;SDS011;53532;53.084;6.352;2022-10-16T00:02:32;8.45;;;2.97;;
66628;SDS011;53532;53.084;6.352;2022-10-16T00:04:58;8.95;;;3.10;;
66628;SDS011;53532;53.084;6.352;2022-10-16T00:07:25;11.65;;;3.15;;
66628;SDS011;53532;53.084;6.352;2022-10-16T00:09:51;11.55;;;3.00;;
66628;SDS011;53532;53.084;6.352;2022-10-16T00:12:17;10.65;;;3.05;;
66628;SDS011;53532;53.084;6.352;2022-10-16T00:14:43;9.70;;;2.83;;
66628;SDS011;53532;53.084;6.352;2022-10-16T00:17:09;10.13;;;3.17;;
66628;SDS011;53532;53.084;6.352;2022-10-16T00:19:36;10.43;;;3.65;;
66628;SDS011;53532;53.084;6.352;2022-10-16T00:22:03;10.15;;;2.90;;
66628;SDS011;53532;53.084;6.352;2022-10-16T00:24:29;12.35;;;3.10;;
66628;SDS011;53532;53.084;6.352;2022-10-16T00:26:55;9.88;;;3.08;;
66628;SDS011;53532;53.084;6.352;2022-10-16T00:29:21;9.43;;;3.08;;
66628;SDS011;53532;53.084;6.352;2022-10-16T00:31:47;8.38;;;3.10;;
66628;SDS011;53532;53.084;6.352;2022-10-16T00:34:13;10.93;;;3.08;;
66628;SDS011;53532;53.084;6.352;2022-10-16T00:36:41;9.93;;;2.97;;
66628;SDS011;53532;53.084;6.352;2022-10-16T00:39:07;8.73;;;2.95;;
66628;SDS011;53532;53.084;6.352;2022-10-16T00:41:33;8.60;;;2.78;;
66628;SDS011;53532;53.084;6.352;2022-10-16T00:44:00;10.85;;;3.20;;
66628;SDS011;53532;53.084;6.352;2022-10-16T00:46:27;8.10;;;2.60;;
66628;SDS011;53532;53.084;6.352;2022-10-16T00:48:56;8.95;;;2.80;;
66628;SDS011;53532;53.084;6.352;2022-10-16T00:51:24;6.60;;;2.78;;
66628;SDS011;53532;53.084;6.352;2022-10-16T00:53:52;8.77;;;2.60;;
66628;SDS011;53532;53.084;6.352;2022-10-16T00:56:19;7.60;;;3.15;;
66628;SDS011;53532;53.084;6.352;2022-10-16T00:58:45;7.75;;;2.70;;
66628;SDS011;53532;53.084;6.352;2022-10-16T01:01:11;8.25;;;2.70;;
66628;SDS011;53532;53.084;6.352;2022-10-16T01:03:37;12.15;;;2.58;;
66628;SDS011;53532;53.084;6.352;2022-10-16T01:06:09;9.70;;;2.90;;
66628;SDS011;53532;53.084;6.352;2022-10-16T01:08:43;8.27;;;2.53;;
66628;SDS011;53532;53.084;6.352;2022-10-16T01:11:13;7.50;;;2.87;;
66628;SDS011;53532;53.084;6.352;2022-10-16T01:13:42;8.73;;;2.67;;
66628;SDS011;53532;53.084;6.352;2022-10-16T01:16:10;10.13;;;3.03;;
66628;SDS011;53532;53.084;6.352;2022-10-16T01:18:39;8.60;;;2.55;;
66628;SDS011;53532;53.084;6.352;2022-10-16T01:21:08;7.90;;;2.33;;
66628;SDS011;53532;53.084;6.352;2022-10-16T01:23:38;10.80;;;2.47;;
66628;SDS011;53532;53.084;6.352;2022-10-16T01:26:10;6.30;;;2.58;;
66628;SDS011;53532;53.084;6.352;2022-10-16T01:31:06;8.80;;;2.85;;
66628;SDS011;53532;53.084;6.352;2022-10-16T01:33:36;9.30;;;2.65;;
66628;SDS011;53532;53.084;6.352;2022-10-16T01:36:06;7.30;;;2.85;;
66628;SDS011;53532;53.084;6.352;2022-10-16T01:38:34;8.98;;;3.00;;
66628;SDS011;53532;53.084;6.352;2022-10-16T01:41:04;10.90;;;2.85;;
66628;SDS011;53532;53.084;6.352;2022-10-16T01:43:32;8.63;;;2.90;;
66628;SDS011;53532;53.084;6.352;2022-10-16T01:45:59;10.38;;;3.00;;
66628;SDS011;53532;53.084;6.352;2022-10-16T01:48:27;10.02;;;2.83;;
66628;SDS011;53532;53.084;6.352;2022-10-16T01:50:55;9.00;;;2.80;;
66628;SDS011;53532;53.084;6.352;2022-10-16T01:53:23;8.00;;;2.90;;
66628;SDS011;53532;53.084;6.352;2022-10-16T01:55:50;10.57;;;2.78;;
66628;SDS011;53532;53.084;6.352;2022-10-16T01:58:18;6.93;;;2.67;;
66628;SDS011;53532;53.084;6.352;2022-10-16T02:00:44;7.10;;;2.80;;
66628;SDS011;53532;53.084;6.352;2022-10-16T02:03:12;5.78;;;2.38;;
66628;SDS011;53532;53.084;6.352;2022-10-16T02:05:41;7.72;;;3.17;;
66628;SDS011;53532;53.084;6.352;2022-10-16T02:08:11;7.60;;;2.90;;
66628;SDS011;53532;53.084;6.352;2022-10-16T02:10:38;7.18;;;2.60;;
66628;SDS011;53532;53.084;6.352;2022-10-16T02:13:06;7.13;;;3.00;;
66628;SDS011;53532;53.084;6.352;2022-10-16T02:15:34;6.53;;;2.60;;
66628;SDS011;53532;53.084;6.352;2022-10-16T02:18:00;7.03;;;2.47;;
66628;SDS011;53532;53.084;6.352;2022-10-16T02:20:27;6.28;;;2.70;;
66628;SDS011;53532;53.084;6.352;2022-10-16T02:22:56;8.05;;;2.70;;
66628;SDS011;53532;53.084;6.352;2022-10-16T02:25:24;10.13;;;2.67;;
66628;SDS011;53532;53.084;6.352;2022-10-16T02:27:51;6.40;;;2.72;;
66628;SDS011;53532;53.084;6.352;2022-10-16T02:30:21;7.03;;;2.60;;
66628;SDS011;53532;53.084;6.352;2022-10-16T02:32:49;6.20;;;2.40;;
66628;SDS011;53532;53.084;6.352;2022-10-16T02:35:16;6.00;;;2.67;;
66628;SDS011;53532;53.084;6.352;2022-10-16T02:37:43;6.55;;;2.63;;
66628;SDS011;53532;53.084;6.352;2022-10-16T02:40:12;9.82;;;2.80;;
66628;SDS011;53532;53.084;6.352;2022-10-16T02:42:38;7.88;;;2.63;;
66628;SDS011;53532;53.084;6.352;2022-10-16T02:45:05;6.65;;;2.40;;
66628;SDS011;53532;53.084;6.352;2022-10-16T02:47:31;6.75;;;2.70;;
66628;SDS011;53532;53.084;6.352;2022-10-16T02:49:58;9.18;;;2.88;;
66628;SDS011;53532;53.084;6.352;2022-10-16T02:52:24;5.82;;;2.40;;
66628;SDS011;53532;53.084;6.352;2022-10-16T02:54:50;6.07;;;2.30;;
66628;SDS011;53532;53.084;6.352;2022-10-16T02:57:18;7.15;;;2.42;;
66628;SDS011;53532;53.084;6.352;2022-10-16T02:59:44;6.63;;;2.42;;
66628;SDS011;53532;53.084;6.352;2022-10-16T03:02:10;6.65;;;2.40;;
66628;SDS011;53532;53.084;6.352;2022-10-16T03:04:36;5.72;;;2.53;;
66628;SDS011;53532;53.084;6.352;2022-10-16T03:07:03;7.03;;;2.53;;
66628;SDS011;53532;53.084;6.352;2022-10-16T03:09:29;5.85;;;2.33;;
66628;SDS011;53532;53.084;6.352;2022-10-16T03:11:55;5.88;;;2.60;;
66628;SDS011;53532;53.084;6.352;2022-10-16T03:14:22;5.20;;;2.22;;
66628;SDS011;53532;53.084;6.352;2022-10-16T03:16:49;7.55;;;2.55;;
66628;SDS011;53532;53.084;6.352;2022-10-16T03:19:15;5.50;;;2.67;;
66628;SDS011;53532;53.084;6.352;2022-10-16T03:21:41;6.78;;;2.35;;
66628;SDS011;53532;53.084;6.352;2022-10-16T03:24:07;5.47;;;2.35;;
66628;SDS011;53532;53.084;6.352;2022-10-16T03:26:34;5.65;;;2.65;;
66628;SDS011;53532;53.084;6.352;2022-10-16T03:29:00;9.52;;;2.60;;
66628;SDS011;53532;53.084;6.352;2022-10-16T03:31:29;9.20;;;2.70;;
66628;SDS011;53532;53.084;6.352;2022-10-16T03:33:55;6.85;;;2.47;;
66628;SDS011;53532;53.084;6.352;2022-10-16T03:36:22;8.35;;;2.90;;
66628;SDS011;53532;53.084;6.352;2022-10-16T03:38:48;8.20;;;2.60;;
66628;SDS011;53532;53.084;6.352;2022-10-16T03:41:14;8.10;;;2.88;;
66628;SDS011;53532;53.084;6.352;2022-10-16T03:43:40;6.22;;;2.53;;
66628;SDS011;53532;53.084;6.352;2022-10-16T03:46:06;8.32;;;2.75;;
66628;SDS011;53532;53.084;6.352;2022-10-16T03:48:34;8.25;;;2.70;;
66628;SDS011;53532;53.084;6.352;2022-10-16T03:51:00;6.82;;;2.60;;
66628;SDS011;53532;53.084;6.352;2022-10-16T03:53:26;7.32;;;3.00;;
66628;SDS011;53532;53.084;6.352;2022-10-16T03:55:52;6.82;;;2.67;;
66628;SDS011;53532;53.084;6.352;2022-10-16T03:58:18;8.10;;;2.72;;
66628;SDS011;53532;53.084;6.352;2022-10-16T04:00:45;6.13;;;2.83;;
66628;SDS011;53532;53.084;6.352;2022-10-16T04:03:12;9.10;;;2.80;;
66628;SDS011;53532;53.084;6.352;2022-10-16T04:05:40;7.93;;;2.80;;
66628;SDS011;53532;53.084;6.352;2022-10-16T04:08:06;7.78;;;2.78;;
66628;SDS011;53532;53.084;6.352;2022-10-16T04:10:32;6.25;;;2.88;;
66628;SDS011;53532;53.084;6.352;2022-10-16T04:12:58;8.35;;;2.95;;
66628;SDS011;53532;53.084;6.352;2022-10-16T04:15:24;7.28;;;2.97;;
66628;SDS011;53532;53.084;6.352;2022-10-16T04:17:51;8.27;;;2.95;;
66628;SDS011;53532;53.084;6.352;2022-10-16T04:20:17;7.13;;;2.70;;
66628;SDS011;53532;53.084;6.352;2022-10-16T04:22:45;7.22;;;2.95;;
66628;SDS011;53532;53.084;6.352;2022-10-16T04:25:11;8.23;;;2.72;;
66628;SDS011;53532;53.084;6.352;2022-10-16T04:27:37;6.45;;;3.05;;
66628;SDS011;53532;53.084;6.352;2022-10-16T04:30:04;10.10;;;3.03;;
66628;SDS011;53532;53.084;6.352;2022-10-16T04:32:30;7.05;;;3.03;;
66628;SDS011;53532;53.084;6.352;2022-10-16T04:34:56;8.00;;;2.83;;
66628;SDS011;53532;53.084;6.352;2022-10-16T04:37:23;7.10;;;2.95;;
66628;SDS011;53532;53.084;6.352;2022-10-16T04:39:50;6.80;;;2.97;;
66628;SDS011;53532;53.084;6.352;2022-10-16T04:42:17;9.10;;;3.10;;
66628;SDS011;53532;53.084;6.352;2022-10-16T04:44:43;6.32;;;2.90;;
66628;SDS011;53532;53.084;6.352;2022-10-16T04:47:09;8.68;;;3.47;;
66628;SDS011;53532;53.084;6.352;2022-10-16T04:49:35;9.15;;;3.30;;
66628;SDS011;53532;53.084;6.352;2022-10-16T04:52:01;10.50;;;3.47;;
66628;SDS011;53532;53.084;6.352;2022-10-16T04:54:27;9.52;;;3.60;;
66628;SDS011;53532;53.084;6.352;2022-10-16T04:56:55;7.38;;;3.40;;
66628;SDS011;53532;53.084;6.352;2022-10-16T04:59:21;8.52;;;3.50;;
66628;SDS011;53532;53.084;6.352;2022-10-16T05:01:47;7.63;;;3.83;;
66628;SDS011;53532;53.084;6.352;2022-10-16T05:04:13;9.63;;;3.97;;
66628;SDS011;53532;53.084;6.352;2022-10-16T05:06:40;8.07;;;3.63;;
66628;SDS011;53532;53.084;6.352;2022-10-16T05:09:06;7.07;;;3.67;;
66628;SDS011;53532;53.084;6.352;2022-10-16T05:11:33;8.52;;;3.88;;
66628;SDS011;53532;53.084;6.352;2022-10-16T05:14:00;7.32;;;3.60;;
66628;SDS011;53532;53.084;6.352;2022-10-16T05:16:27;12.90;;;3.97;;
66628;SDS011;53532;53.084;6.352;2022-10-16T05:18:53;8.07;;;3.85;;
66628;SDS011;53532;53.084;6.352;2022-10-16T05:21:19;8.35;;;4.00;;
66628;SDS011;53532;53.084;6.352;2022-10-16T05:23:45;7.00;;;3.85;;
66628;SDS011;53532;53.084;6.352;2022-10-16T05:26:12;9.23;;;4.00;;
66628;SDS011;53532;53.084;6.352;2022-10-16T05:28:38;9.52;;;4.10;;
66628;SDS011;53532;53.084;6.352;2022-10-16T05:31:06;10.07;;;3.90;;
66628;SDS011;53532;53.084;6.352;2022-10-16T05:33:32;7.35;;;3.70;;
66628;SDS011;53532;53.084;6.352;2022-10-16T05:36:00;8.65;;;4.03;;
66628;SDS011;53532;53.084;6.352;2022-10-16T05:38:26;9.80;;;3.88;;
66628;SDS011;53532;53.084;6.352;2022-10-16T05:40:52;9.10;;;4.00;;
66628;SDS011;53532;53.084;6.352;2022-10-16T05:43:19;7.60;;;3.70;;
66628;SDS011;53532;53.084;6.352;2022-10-16T05:45:52;9.05;;;3.88;;
66628;SDS011;53532;53.084;6.352;2022-10-16T05:48:20;10.15;;;3.63;;
66628;SDS011;53532;53.084;6.352;2022-10-16T05:50:46;7.15;;;3.65;;
66628;SDS011;53532;53.084;6.352;2022-10-16T05:53:12;7.97;;;3.97;;
66628;SDS011;53532;53.084;6.352;2022-10-16T05:55:38;11.57;;;4.40;;
66628;SDS011;53532;53.084;6.352;2022-10-16T05:58:04;9.88;;;4.20;;
66628;SDS011;53532;53.084;6.352;2022-10-16T06:00:31;10.43;;;4.80;;
66628;SDS011;53532;53.084;6.352;2022-10-16T06:02:57;10.73;;;4.10;;
66628;SDS011;53532;53.084;6.352;2022-10-16T06:05:24;9.57;;;4.25;;
66628;SDS011;53532;53.084;6.352;2022-10-16T06:07:51;9.32;;;4.30;;
66628;SDS011;53532;53.084;6.352;2022-10-16T06:10:17;12.48;;;4.47;;
66628;SDS011;53532;53.084;6.352;2022-10-16T06:12:44;9.27;;;4.40;;
66628;SDS011;53532;53.084;6.352;2022-10-16T06:15:10;8.80;;;4.22;;
66628;SDS011;53532;53.084;6.352;2022-10-16T06:17:36;9.40;;;4.32;;
66628;SDS011;53532;53.084;6.352;2022-10-16T06:20:02;11.02;;;4.75;;
66628;SDS011;53532;53.084;6.352;2022-10-16T06:22:29;9.35;;;4.80;;
66628;SDS011;53532;53.084;6.352;2022-10-16T06:24:55;9.82;;;4.68;;
66628;SDS011;53532;53.084;6.352;2022-10-16T06:27:22;9.55;;;4.75;;
66628;SDS011;53532;53.084;6.352;2022-10-16T06:29:48;8.68;;;4.45;;
66628;SDS011;53532;53.084;6.352;2022-10-16T06:32:14;10.45;;;4.60;;
66628;SDS011;53532;53.084;6.352;2022-10-16T06:34:40;8.65;;;4.47;;
66628;SDS011;53532;53.084;6.352;2022-10-16T06:37:06;10.10;;;3.95;;
66628;SDS011;53532;53.084;6.352;2022-10-16T06:39:34;10.95;;;4.00;;
66628;SDS011;53532;53.084;6.352;2022-10-16T06:42:00;9.63;;;4.22;;
66628;SDS011;53532;53.084;6.352;2022-10-16T06:44:26;8.40;;;3.78;;
66628;SDS011;53532;53.084;6.352;2022-10-16T06:46:52;7.88;;;4.00;;
66628;SDS011;53532;53.084;6.352;2022-10-16T06:49:18;9.02;;;4.07;;
66628;SDS011;53532;53.084;6.352;2022-10-16T06:51:47;9.52;;;3.67;;
66628;SDS011;53532;53.084;6.352;2022-10-16T06:54:14;9.05;;;4.18;;
66628;SDS011;53532;53.084;6.352;2022-10-16T06:56:41;8.23;;;3.72;;
66628;SDS011;53532;53.084;6.352;2022-10-16T06:59:07;7.68;;;3.67;;
66628;SDS011;53532;53.084;6.352;2022-10-16T07:01:34;9.85;;;4.05;;
66628;SDS011;53532;53.084;6.352;2022-10-16T07:04:00;10.07;;;4.18;;
66628;SDS011;53532;53.084;6.352;2022-10-16T07:06:27;9.77;;;4.03;;
66628;SDS011;53532;53.084;6.352;2022-10-16T07:08:56;8.73;;;4.15;;
66628;SDS011;53532;53.084;6.352;2022-10-16T07:11:23;7.63;;;4.10;;
66628;SDS011;53532;53.084;6.352;2022-10-16T07:13:51;10.45;;;3.83;;
66628;SDS011;53532;53.084;6.352;2022-10-16T07:16:18;9.45;;;4.00;;
66628;SDS011;53532;53.084;6.352;2022-10-16T07:18:44;8.02;;;3.88;;
66628;SDS011;53532;53.084;6.352;2022-10-16T07:21:12;9.85;;;4.18;;
66628;SDS011;53532;53.084;6.352;2022-10-16T07:23:38;7.50;;;3.55;;
66628;SDS011;53532;53.084;6.352;2022-10-16T07:26:05;8.57;;;3.97;;
66628;SDS011;53532;53.084;6.352;2022-10-16T07:28:31;9.55;;;3.63;;
66628;SDS011;53532;53.084;6.352;2022-10-16T07:31:01;8.68;;;3.60;;
66628;SDS011;53532;53.084;6.352;2022-10-16T07:33:27;8.60;;;3.70;;
66628;SDS011;53532;53.084;6.352;2022-10-16T07:35:54;9.48;;;3.90;;
66628;SDS011;53532;53.084;6.352;2022-10-16T07:38:20;9.02;;;4.00;;
66628;SDS011;53532;53.084;6.352;2022-10-16T07:40:47;8.63;;;3.70;;
66628;SDS011;53532;53.084;6.352;2022-10-16T07:43:13;8.32;;;3.88;;
66628;SDS011;53532;53.084;6.352;2022-10-16T07:45:46;9.55;;;3.67;;
66628;SDS011;53532;53.084;6.352;2022-10-16T07:48:14;7.68;;;3.78;;
66628;SDS011;53532;53.084;6.352;2022-10-16T07:50:40;8.80;;;3.67;;
66628;SDS011;53532;53.084;6.352;2022-10-16T07:53:06;6.80;;;3.50;;
66628;SDS011;53532;53.084;6.352;2022-10-16T07:55:32;8.95;;;3.35;;
66628;SDS011;53532;53.084;6.352;2022-10-16T07:57:58;6.75;;;3.28;;
66628;SDS011;53532;53.084;6.352;2022-10-16T08:00:25;8.05;;;3.35;;
66628;SDS011;53532;53.084;6.352;2022-10-16T08:02:51;9.68;;;3.42;;
66628;SDS011;53532;53.084;6.352;2022-10-16T08:05:18;6.38;;;3.08;;
66628;SDS011;53532;53.084;6.352;2022-10-16T08:07:47;8.32;;;3.10;;
66628;SDS011;53532;53.084;6.352;2022-10-16T08:10:14;7.15;;;3.25;;
66628;SDS011;53532;53.084;6.352;2022-10-16T08:12:41;6.25;;;2.90;;
66628;SDS011;53532;53.084;6.352;2022-10-16T08:15:08;5.45;;;2.65;;
66628;SDS011;53532;53.084;6.352;2022-10-16T08:17:34;6.30;;;2.58;;
66628;SDS011;53532;53.084;6.352;2022-10-16T08:20:00;7.35;;;2.60;;
66628;SDS011;53532;53.084;6.352;2022-10-16T08:22:28;6.40;;;2.50;;
66628;SDS011;53532;53.084;6.352;2022-10-16T08:24:54;7.60;;;2.33;;
66628;SDS011;53532;53.084;6.352;2022-10-16T08:27:20;6.65;;;2.38;;
66628;SDS011;53532;53.084;6.352;2022-10-16T08:29:48;7.90;;;2.33;;
66628;SDS011;53532;53.084;6.352;2022-10-16T08:32:14;5.63;;;1.90;;
66628;SDS011;53532;53.084;6.352;2022-10-16T08:34:40;5.07;;;1.88;;
66628;SDS011;53532;53.084;6.352;2022-10-16T08:37:06;8.23;;;2.30;;
66628;SDS011;53532;53.084;6.352;2022-10-16T08:39:37;5.85;;;1.77;;
66628;SDS011;53532;53.084;6.352;2022-10-16T08:42:19;8.57;;;2.20;;
66628;SDS011;53532;53.084;6.352;2022-10-16T08:47:40;8.43;;;1.95;;
66628;SDS011;53532;53.084;6.352;2022-10-16T08:50:10;8.05;;;2.03;;
66628;SDS011;53532;53.084;6.352;2022-10-16T08:52:38;6.82;;;2.30;;
66628;SDS011;53532;53.084;6.352;2022-10-16T08:55:08;6.70;;;2.17;;
66628;SDS011;53532;53.084;6.352;2022-10-16T08:57:40;7.10;;;2.47;;
66628;SDS011;53532;53.084;6.352;2022-10-16T09:00:11;9.93;;;2.22;;
66628;SDS011;53532;53.084;6.352;2022-10-16T09:02:39;6.22;;;2.00;;
66628;SDS011;53532;53.084;6.352;2022-10-16T09:05:17;8.43;;;2.53;;
66628;SDS011;53532;53.084;6.352;2022-10-16T09:08:03;10.52;;;2.40;;
66628;SDS011;53532;53.084;6.352;2022-10-16T09:10:38;7.72;;;2.30;;
66628;SDS011;53532;53.084;6.352;2022-10-16T09:13:16;8.43;;;2.10;;
66628;SDS011;53532;53.084;6.352;2022-10-16T09:15:48;7.35;;;2.50;;
66628;SDS011;53532;53.084;6.352;2022-10-16T09:18:22;7.38;;;2.53;;
66628;SDS011;53532;53.084;6.352;2022-10-16T09:20:57;7.80;;;2.28;;
66628;SDS011;53532;53.084;6.352;2022-10-16T09:23:34;14.90;;;2.53;;
66628;SDS011;53532;53.084;6.352;2022-10-16T09:26:11;10.90;;;2.38;;
66628;SDS011;53532;53.084;6.352;2022-10-16T09:28:41;8.00;;;2.22;;
66628;SDS011;53532;53.084;6.352;2022-10-16T09:31:10;11.05;;;2.47;;
66628;SDS011;53532;53.084;6.352;2022-10-16T09:33:40;9.02;;;2.28;;
66628;SDS011;53532;53.084;6.352;2022-10-16T09:36:06;8.20;;;2.28;;
66628;SDS011;53532;53.084;6.352;2022-10-16T09:38:34;9.52;;;2.10;;
66628;SDS011;53532;53.084;6.352;2022-10-16T09:41:01;12.05;;;2.47;;
66628;SDS011;53532;53.084;6.352;2022-10-16T09:43:38;11.48;;;2.45;;
66628;SDS011;53532;53.084;6.352;2022-10-16T09:46:06;8.00;;;2.00;;
66628;SDS011;53532;53.084;6.352;2022-10-16T09:48:35;11.18;;;2.40;;
66628;SDS011;53532;53.084;6.352;2022-10-16T09:51:03;9.25;;;2.05;;
66628;SDS011;53532;53.084;6.352;2022-10-16T09:53:40;12.30;;;2.28;;
66628;SDS011;53532;53.084;6.352;2022-10-16T09:56:09;9.73;;;2.38;;
66628;SDS011;53532;53.084;6.352;2022-10-16T09:58:35;11.73;;;2.20;;
66628;SDS011;53532;53.084;6.352;2022-10-16T10:01:03;12.38;;;2.50;;
66628;SDS011;53532;53.084;6.352;2022-10-16T10:03:36;15.55;;;2.55;;
66628;SDS011;53532;53.084;6.352;2022-10-16T10:06:06;12.45;;;2.47;;
66628;SDS011;53532;53.084;6.352;2022-10-16T10:08:41;8.68;;;2.10;;
66628;SDS011;53532;53.084;6.352;2022-10-16T10:14:04;10.77;;;2.10;;
66628;SDS011;53532;53.084;6.352;2022-10-16T10:16:31;10.32;;;2.22;;
66628;SDS011;53532;53.084;6.352;2022-10-16T10:18:58;14.48;;;2.45;;
66628;SDS011;53532;53.084;6.352;2022-10-16T10:21:23;12.25;;;2.40;;
66628;SDS011;53532;53.084;6.352;2022-10-16T10:23:54;14.75;;;2.47;;
66628;SDS011;53532;53.084;6.352;2022-10-16T10:26:22;10.80;;;2.25;;
66628;SDS011;53532;53.084;6.352;2022-10-16T10:28:54;11.10;;;2.22;;
66628;SDS011;53532;53.084;6.352;2022-10-16T10:31:26;10.70;;;2.10;;
66628;SDS011;53532;53.084;6.352;2022-10-16T10:34:00;12.75;;;2.15;;
66628;SDS011;53532;53.084;6.352;2022-10-16T10:36:36;10.90;;;2.22;;
66628;SDS011;53532;53.084;6.352;2022-10-16T10:39:04;12.13;;;2.22;;
66628;SDS011;53532;53.084;6.352;2022-10-16T10:41:44;8.82;;;1.90;;
66628;SDS011;53532;53.084;6.352;2022-10-16T10:44:28;11.52;;;1.85;;
66628;SDS011;53532;53.084;6.352;2022-10-16T10:47:16;10.60;;;2.65;;
66628;SDS011;53532;53.084;6.352;2022-10-16T10:49:53;10.85;;;2.30;;
66628;SDS011;53532;53.084;6.352;2022-10-16T10:52:34;12.90;;;2.38;;
66628;SDS011;53532;53.084;6.352;2022-10-16T10:55:13;8.32;;;1.80;;
66628;SDS011;53532;53.084;6.352;2022-10-16T10:57:49;11.18;;;2.15;;
66628;SDS011;53532;53.084;6.352;2022-10-16T11:00:41;11.38;;;2.13;;
66628;SDS011;53532;53.084;6.352;2022-10-16T11:03:19;15.25;;;2.65;;
66628;SDS011;53532;53.084;6.352;2022-10-16T11:05:54;13.35;;;2.28;;
66628;SDS011;53532;53.084;6.352;2022-10-16T11:08:26;11.10;;;2.00;;
66628;SDS011;53532;53.084;6.352;2022-10-16T11:10:57;13.75;;;2.22;;
66628;SDS011;53532;53.084;6.352;2022-10-16T11:13:29;10.80;;;2.20;;
66628;SDS011;53532;53.084;6.352;2022-10-16T11:18:27;15.52;;;2.40;;
66628;SDS011;53532;53.084;6.352;2022-10-16T11:20:59;11.18;;;2.15;;
66628;SDS011;53532;53.084;6.352;2022-10-16T11:25:58;9.80;;;2.13;;
66628;SDS011;53532;53.084;6.352;2022-10-16T11:28:27;9.13;;;1.75;;
66628;SDS011;53532;53.084;6.352;2022-10-16T11:30:59;10.13;;;1.85;;
66628;SDS011;53532;53.084;6.352;2022-10-16T11:33:29;9.60;;;1.77;;
66628;SDS011;53532;53.084;6.352;2022-10-16T11:36:06;10.40;;;2.25;;
66628;SDS011;53532;53.084;6.352;2022-10-16T11:38:38;8.93;;;1.73;;
66628;SDS011;53532;53.084;6.352;2022-10-16T11:41:10;15.13;;;2.03;;
66628;SDS011;53532;53.084;6.352;2022-10-16T11:43:43;13.30;;;1.77;;
66628;SDS011;53532;53.084;6.352;2022-10-16T11:46:16;13.10;;;2.10;;
66628;SDS011;53532;53.084;6.352;2022-10-16T11:48:46;15.43;;;2.20;;
66628;SDS011;53532;53.084;6.352;2022-10-16T11:51:20;12.05;;;2.03;;
66628;SDS011;53532;53.084;6.352;2022-10-16T11:53:51;13.98;;;2.55;;
66628;SDS011;53532;53.084;6.352;2022-10-16T11:56:22;11.10;;;2.00;;
66628;SDS011;53532;53.084;6.352;2022-10-16T11:58:52;15.43;;;2.00;;
66628;SDS011;53532;53.084;6.352;2022-10-16T12:01:22;12.38;;;2.05;;
66628;SDS011;53532;53.084;6.352;2022-10-16T12:03:59;12.40;;;2.20;;
66628;SDS011;53532;53.084;6.352;2022-10-16T12:06:39;13.48;;;2.10;;
66628;SDS011;53532;53.084;6.352;2022-10-16T12:09:09;10.20;;;1.95;;
66628;SDS011;53532;53.084;6.352;2022-10-16T12:11:40;11.75;;;1.75;;
66628;SDS011;53532;53.084;6.352;2022-10-16T12:14:07;12.13;;;1.80;;
66628;SDS011;53532;53.084;6.352;2022-10-16T12:17:01;16.23;;;2.00;;
66628;SDS011;53532;53.084;6.352;2022-10-16T12:19:30;10.23;;;2.10;;
66628;SDS011;53532;53.084;6.352;2022-10-16T12:21:59;10.75;;;1.83;;
66628;SDS011;53532;53.084;6.352;2022-10-16T12:24:29;12.88;;;2.10;;
66628;SDS011;53532;53.084;6.352;2022-10-16T12:26:58;12.23;;;2.50;;
66628;SDS011;53532;53.084;6.352;2022-10-16T12:29:28;10.45;;;1.83;;
66628;SDS011;53532;53.084;6.352;2022-10-16T12:31:58;14.13;;;2.15;;
66628;SDS011;53532;53.084;6.352;2022-10-16T12:34:26;13.15;;;2.03;;
66628;SDS011;53532;53.084;6.352;2022-10-16T12:36:54;9.90;;;1.95;;
66628;SDS011;53532;53.084;6.352;2022-10-16T12:39:33;12.50;;;2.03;;
66628;SDS011;53532;53.084;6.352;2022-10-16T12:42:02;10.55;;;1.80;;
66628;SDS011;53532;53.084;6.352;2022-10-16T12:44:33;12.05;;;1.98;;
66628;SDS011;53532;53.084;6.352;2022-10-16T12:46:59;11.27;;;2.00;;
66628;SDS011;53532;53.084;6.352;2022-10-16T12:49:30;11.93;;;2.05;;
66628;SDS011;53532;53.084;6.352;2022-10-16T12:51:57;10.95;;;1.90;;
66628;SDS011;53532;53.084;6.352;2022-10-16T12:54:25;13.20;;;1.92;;
66628;SDS011;53532;53.084;6.352;2022-10-16T12:57:00;13.27;;;1.83;;
66628;SDS011;53532;53.084;6.352;2022-10-16T12:59:39;14.30;;;1.98;;
66628;SDS011;53532;53.084;6.352;2022-10-16T13:02:28;12.45;;;1.83;;
66628;SDS011;53532;53.084;6.352;2022-10-16T13:05:20;11.63;;;1.80;;
66628;SDS011;53532;53.084;6.352;2022-10-16T13:08:00;13.07;;;2.00;;
66628;SDS011;53532;53.084;6.352;2022-10-16T13:10:40;11.60;;;1.80;;
66628;SDS011;53532;53.084;6.352;2022-10-16T13:13:15;13.63;;;1.90;;
66628;SDS011;53532;53.084;6.352;2022-10-16T13:15:52;10.75;;;1.90;;
66628;SDS011;53532;53.084;6.352;2022-10-16T13:18:29;12.50;;;1.95;;
66628;SDS011;53532;53.084;6.352;2022-10-16T13:21:06;11.85;;;1.70;;
66628;SDS011;53532;53.084;6.352;2022-10-16T13:23:42;13.35;;;2.40;;
66628;SDS011;53532;53.084;6.352;2022-10-16T13:26:15;11.55;;;2.20;;
66628;SDS011;53532;53.084;6.352;2022-10-16T13:28:48;9.55;;;1.60;;
66628;SDS011;53532;53.084;6.352;2022-10-16T13:31:16;14.07;;;2.10;;
66628;SDS011;53532;53.084;6.352;2022-10-16T13:33:45;13.30;;;2.13;;
66628;SDS011;53532;53.084;6.352;2022-10-16T13:36:20;11.13;;;2.13;;
66628;SDS011;53532;53.084;6.352;2022-10-16T13:38:47;11.23;;;2.17;;
66628;SDS011;53532;53.084;6.352;2022-10-16T13:41:14;13.65;;;2.33;;
66628;SDS011;53532;53.084;6.352;2022-10-16T13:43:42;14.90;;;2.33;;
66628;SDS011;53532;53.084;6.352;2022-10-16T13:46:13;17.35;;;2.08;;
66628;SDS011;53532;53.084;6.352;2022-10-16T13:48:40;11.55;;;2.20;;
66628;SDS011;53532;53.084;6.352;2022-10-16T13:51:11;13.13;;;2.35;;
66628;SDS011;53532;53.084;6.352;2022-10-16T13:53:38;12.05;;;2.10;;
66628;SDS011;53532;53.084;6.352;2022-10-16T13:56:06;10.15;;;1.90;;
66628;SDS011;53532;53.084;6.352;2022-10-16T13:58:34;11.80;;;1.98;;
66628;SDS011;53532;53.084;6.352;2022-10-16T14:01:02;14.38;;;2.53;;
66628;SDS011;53532;53.084;6.352;2022-10-16T14:03:32;11.43;;;1.92;;
66628;SDS011;53532;53.084;6.352;2022-10-16T14:06:01;9.95;;;1.75;;
66628;SDS011;53532;53.084;6.352;2022-10-16T14:08:29;9.65;;;1.77;;
66628;SDS011;53532;53.084;6.352;2022-10-16T14:10:56;10.38;;;1.70;;
66628;SDS011;53532;53.084;6.352;2022-10-16T14:13:28;8.07;;;1.50;;
66628;SDS011;53532;53.084;6.352;2022-10-16T14:15:57;9.32;;;2.03;;
66628;SDS011;53532;53.084;6.352;2022-10-16T14:18:27;15.07;;;2.10;;
66628;SDS011;53532;53.084;6.352;2022-10-16T14:20:55;12.43;;;2.00;;
66628;SDS011;53532;53.084;6.352;2022-10-16T14:23:29;12.95;;;2.47;;
66628;SDS011;53532;53.084;6.352;2022-10-16T14:26:05;14.45;;;2.25;;
66628;SDS011;53532;53.084;6.352;2022-10-16T14:28:40;14.32;;;2.03;;
66628;SDS011;53532;53.084;6.352;2022-10-16T14:31:19;12.18;;;1.90;;
66628;SDS011;53532;53.084;6.352;2022-10-16T14:33:50;12.50;;;2.45;;
66628;SDS011;53532;53.084;6.352;2022-10-16T14:36:17;10.30;;;1.73;;
66628;SDS011;53532;53.084;6.352;2022-10-16T14:38:48;8.15;;;1.70;;
66628;SDS011;53532;53.084;6.352;2022-10-16T14:41:19;13.07;;;2.00;;
66628;SDS011;53532;53.084;6.352;2022-10-16T14:43:49;14.13;;;1.85;;
66628;SDS011;53532;53.084;6.352;2022-10-16T14:46:20;8.32;;;1.85;;
66628;SDS011;53532;53.084;6.352;2022-10-16T14:48:51;12.50;;;1.85;;
66628;SDS011;53532;53.084;6.352;2022-10-16T14:51:24;11.15;;;1.67;;
66628;SDS011;53532;53.084;6.352;2022-10-16T14:53:51;10.15;;;1.90;;
66628;SDS011;53532;53.084;6.352;2022-10-16T14:56:17;11.90;;;1.95;;
66628;SDS011;53532;53.084;6.352;2022-10-16T14:58:45;10.23;;;1.92;;
66628;SDS011;53532;53.084;6.352;2022-10-16T15:01:10;13.40;;;1.90;;
66628;SDS011;53532;53.084;6.352;2022-10-16T15:03:37;13.07;;;2.25;;
66628;SDS011;53532;53.084;6.352;2022-10-16T15:06:02;12.40;;;2.30;;